Time;durP1;ratioP1;P1;durP2;ratioP2;P2;SDS_P1;SDS_P2;PMS_P1;PMS_P2;Temp;Humidity;BMP_temperature;BMP_pressure;BME280_temperature;BME280_humidity;BME280_pressure;Samples;Min_cycle;Max_cycle;Signal;HPM_P1;HPM_P2
2023/09/04 00:00:41;;;;;;;2.30;1.50;;;;;;;14.57;100.00;97501.83;109335;1254;69020;-64
2023/09/04 00:03:32;;;;;;;2.00;1.50;;;;;;;14.58;100.00;97499.25;109291;1254;68507;-64
2023/09/04 00:06:02;;;;;;;2.10;1.60;;;;;;;14.58;100.00;97497.84;109290;1254;69402;-64
2023/09/04 00:08:34;;;;;;;2.10;1.40;;;;;;;14.58;100.00;97495.27;109342;1254;57681;-64
2023/09/04 00:11:06;;;;;;;2.00;1.70;;;;;;;14.57;100.00;97496.31;109786;1248;57668;-64
2023/09/04 00:13:37;;;;;;;2.00;1.50;;;;;;;14.58;100.00;97496.30;109826;1243;68125;-64
2023/09/04 00:16:07;;;;;;;2.50;1.70;;;;;;;14.58;100.00;97498.23;109909;1248;69141;-65
2023/09/04 00:18:38;;;;;;;1.60;1.40;;;;;;;14.56;100.00;97494.89;109875;1247;69915;-63
2023/09/04 00:21:10;;;;;;;2.50;1.60;;;;;;;14.54;100.00;97489.56;109846;1247;58098;-67
2023/09/04 00:23:41;;;;;;;1.90;1.50;;;;;;;14.51;100.00;97484.60;109840;1248;58040;-64
2023/09/04 00:26:15;;;;;;;2.90;1.70;;;;;;;14.49;100.00;97484.44;109828;1243;70106;-64
2023/09/04 00:28:50;;;;;;;1.80;1.40;;;;;;;14.46;100.00;97480.58;109689;1248;69311;-65
2023/09/04 00:31:23;;;;;;;2.00;1.60;;;;;;;14.44;100.00;97481.68;109698;1248;69127;-66
2023/09/04 00:33:55;;;;;;;2.20;1.70;;;;;;;14.42;100.00;97483.92;109644;1249;58147;-66
2023/09/04 00:36:29;;;;;;;2.00;1.60;;;;;;;14.42;100.00;97485.19;109771;1245;58075;-64
2023/09/04 00:39:00;;;;;;;1.30;1.10;;;;;;;14.42;100.00;97485.57;109823;1248;69030;-66
2023/09/04 00:41:31;;;;;;;2.80;2.10;;;;;;;14.43;100.00;97479.48;109820;1245;68432;-65
2023/09/04 00:44:01;;;;;;;2.70;1.60;;;;;;;14.43;100.00;97476.84;109904;1248;69397;-65
2023/09/04 00:46:32;;;;;;;2.50;1.80;;;;;;;14.42;100.00;97477.85;109880;1245;58134;-66
2023/09/04 00:49:04;;;;;;;3.50;1.90;;;;;;;14.40;100.00;97475.85;109709;1245;58087;-66
2023/09/04 00:51:35;;;;;;;2.60;1.70;;;;;;;14.37;100.00;97474.75;109869;1243;68967;-65
2023/09/04 00:54:05;;;;;;;4.00;2.20;;;;;;;14.37;100.00;97473.04;109768;1248;68182;-65
2023/09/04 00:56:37;;;;;;;3.30;2.00;;;;;;;14.34;100.00;97467.84;109671;1248;69288;-65
2023/09/04 00:59:08;;;;;;;3.10;1.60;;;;;;;14.32;100.00;97473.61;109903;1247;58106;-66
2023/09/04 01:01:43;;;;;;;3.00;1.70;;;;;;;14.31;100.00;97474.08;109869;1247;58075;-65
2023/09/04 01:04:16;;;;;;;4.30;2.20;;;;;;;14.30;100.00;97475.35;109781;1247;68878;-65
2023/09/04 01:06:47;;;;;;;3.50;2.20;;;;;;;14.30;100.00;97479.56;109868;1247;69239;-65
2023/09/04 01:09:25;;;;;;;2.50;1.70;;;;;;;14.32;100.00;97482.55;109848;1246;69140;-65
2023/09/04 01:12:08;;;;;;;3.40;1.80;;;;;;;14.34;100.00;97482.56;109898;1245;58132;-65
2023/09/04 01:14:47;;;;;;;3.20;1.90;;;;;;;14.35;100.00;97480.35;109681;1247;58108;-65
2023/09/04 01:17:18;;;;;;;2.40;1.60;;;;;;;14.37;100.00;97483.73;109644;1245;69953;-65
2023/09/04 01:19:49;;;;;;;2.60;1.40;;;;;;;14.38;100.00;97490.08;109701;1248;69072;-65
2023/09/04 01:22:24;;;;;;;2.60;1.80;;;;;;;14.41;100.00;97499.80;109705;1245;69123;-66
2023/09/04 01:24:55;;;;;;;2.90;2.10;;;;;;;14.43;100.00;97497.69;109725;1248;58128;-66
2023/09/04 01:27:39;;;;;;;2.80;2.00;;;;;;;14.45;100.00;97498.61;109757;1247;57996;-64
2023/09/04 01:30:29;;;;;;;3.70;1.80;;;;;;;14.47;100.00;97499.15;109700;1245;70479;-66
2023/09/04 01:33:04;;;;;;;2.90;1.60;;;;;;;14.50;100.00;97499.44;109671;1249;69251;-66
2023/09/04 01:35:38;;;;;;;3.60;1.80;;;;;;;14.51;100.00;97499.83;109711;1247;69338;-64
2023/09/04 01:38:11;;;;;;;2.80;1.90;;;;;;;14.52;100.00;97502.56;109686;1245;58087;-64
2023/09/04 01:40:42;;;;;;;4.10;2.00;;;;;;;14.52;100.00;97501.14;109587;1248;58031;-65
2023/09/04 01:43:12;;;;;;;3.20;2.20;;;;;;;14.54;100.00;97500.98;109711;1246;69250;-65
2023/09/04 01:45:43;;;;;;;3.20;2.00;;;;;;;14.56;100.00;97504.20;109716;1247;68476;-65
2023/09/04 01:48:14;;;;;;;4.40;2.30;;;;;;;14.56;100.00;97503.95;109698;1245;68469;-65
2023/09/04 01:50:45;;;;;;;3.00;2.00;;;;;;;14.56;100.00;97499.75;109648;1248;58201;-64
2023/09/04 01:53:17;;;;;;;2.50;1.90;;;;;;;14.58;100.00;97497.14;110136;1240;58127;-65
2023/09/04 01:55:46;;;;;;;3.00;2.30;;;;;;;14.61;100.00;97498.15;110136;1241;69773;-65
2023/09/04 01:58:17;;;;;;;4.00;2.90;;;;;;;14.62;100.00;97497.52;109793;1244;69287;-66
2023/09/04 02:00:47;;;;;;;3.30;2.70;;;;;;;14.62;100.00;97498.56;109771;1244;69138;-66
2023/09/04 02:03:18;;;;;;;3.40;2.50;;;;;;;14.62;100.00;97505.02;109763;1244;58075;-65
2023/09/04 02:05:49;;;;;;;3.30;2.50;;;;;;;14.63;100.00;97507.90;110150;1240;58181;-65
2023/09/04 02:08:23;;;;;;;3.80;3.00;;;;;;;14.62;100.00;97504.89;109847;1241;69661;-64
2023/09/04 02:10:59;;;;;;;4.10;2.90;;;;;;;14.62;100.00;97504.33;110154;1241;68503;-65
2023/09/04 02:13:30;;;;;;;3.20;2.60;;;;;;;14.61;100.00;97501.75;109814;1240;69356;-65
2023/09/04 02:16:29;;;;;;;3.90;2.70;;;;;;;14.61;100.00;97498.98;110110;1244;58083;-65
2023/09/04 02:19:27;;;;;;;3.70;2.50;;;;;;;14.62;100.00;97498.02;110108;1240;58131;-66
2023/09/04 02:21:57;;;;;;;3.20;2.80;;;;;;;14.61;100.00;97498.30;110152;1243;69907;-66
2023/09/04 02:24:33;;;;;;;3.60;2.90;;;;;;;14.60;100.00;97502.73;110132;1240;68724;-64
2023/09/04 02:27:04;;;;;;;6.00;3.40;;;;;;;14.58;100.00;97500.44;109789;1247;68573;-66
2023/09/04 02:29:36;;;;;;;5.50;3.60;;;;;;;14.57;100.00;97501.29;110117;1242;58197;-65
2023/09/04 02:32:09;;;;;;;5.50;3.50;;;;;;;14.54;100.00;97498.05;110162;1241;58134;-65
2023/09/04 02:34:40;;;;;;;5.60;4.40;;;;;;;14.49;100.00;97491.07;110096;1242;69819;-66
2023/09/04 02:37:12;;;;;;;6.80;4.80;;;;;;;14.46;100.00;97490.23;110121;1243;69201;-65
2023/09/04 02:39:44;;;;;;;8.50;4.70;;;;;;;14.44;100.00;97489.23;110113;1242;69335;-65
2023/09/04 02:42:16;;;;;;;9.30;5.80;;;;;;;14.44;100.00;97492.23;110145;1241;58499;-65
2023/09/04 02:44:47;;;;;;;5.30;4.10;;;;;;;14.44;100.00;97495.35;110154;1243;58123;-65
2023/09/04 02:47:18;;;;;;;6.40;4.80;;;;;;;14.44;100.00;97500.27;110188;1243;68946;-65
2023/09/04 02:49:49;;;;;;;5.70;4.00;;;;;;;14.44;100.00;97500.40;109704;1246;69067;-65
2023/09/04 02:52:21;;;;;;;7.30;4.50;;;;;;;14.46;100.00;97504.16;110104;1242;68455;-65
2023/09/04 02:54:54;;;;;;;6.30;4.50;;;;;;;14.47;100.00;97509.48;110148;1240;58139;-65
2023/09/04 02:57:29;;;;;;;4.80;3.50;;;;;;;14.48;100.00;97509.20;110130;1242;58068;-65
2023/09/04 03:00:00;;;;;;;6.80;4.80;;;;;;;14.48;100.00;97510.92;110119;1240;69039;-65
2023/09/04 03:02:31;;;;;;;5.70;4.20;;;;;;;14.49;100.00;97511.73;110168;1242;69372;-65
2023/09/04 03:05:05;;;;;;;4.50;3.50;;;;;;;14.52;100.00;97512.38;110136;1242;69319;-65
2023/09/04 03:07:38;;;;;;;7.10;4.60;;;;;;;14.55;100.00;97515.67;110138;1242;58106;-66
2023/09/04 03:10:09;;;;;;;5.40;4.10;;;;;;;14.56;100.00;97517.16;109830;1241;58069;-65
2023/09/04 03:12:41;;;;;;;4.90;2.90;;;;;;;14.56;100.00;97519.77;109844;1244;69939;-65
2023/09/04 03:15:11;;;;;;;3.90;3.20;;;;;;;14.58;100.00;97513.27;109849;1240;69168;-65
2023/09/04 03:17:42;;;;;;;3.50;2.80;;;;;;;14.61;100.00;97511.77;110122;1242;68326;-65
2023/09/04 03:20:19;;;;;;;6.60;2.80;;;;;;;14.63;100.00;97507.70;109816;1240;58437;-65
2023/09/04 03:22:52;;;;;;;4.80;3.00;;;;;;;14.65;100.00;97508.10;110076;1244;58102;-64
2023/09/04 03:25:29;;;;;;;4.60;2.70;;;;;;;14.65;100.00;97509.52;110066;1240;69781;-64
2023/09/04 03:28:01;;;;;;;3.50;2.70;;;;;;;14.65;100.00;97509.33;109832;1244;69248;-64
2023/09/04 03:30:34;;;;;;;3.70;2.80;;;;;;;14.64;100.00;97508.89;109841;1244;69164;-66
2023/09/04 03:33:08;;;;;;;4.30;3.00;;;;;;;14.63;100.00;97503.52;109796;1242;58189;-65
2023/09/04 03:35:39;;;;;;;4.00;2.90;;;;;;;14.63;100.00;97500.92;110094;1240;58082;-65
2023/09/04 03:38:09;;;;;;;3.70;2.90;;;;;;;14.64;100.00;97500.64;110082;1240;69712;-66
2023/09/04 03:40:39;;;;;;;4.40;3.10;;;;;;;14.64;100.00;97494.86;110108;1242;68174;-66
2023/09/04 03:43:12;;;;;;;4.90;4.30;;;;;;;14.63;100.00;97491.06;109740;1247;69908;-66
2023/09/04 03:45:42;;;;;;;3.80;2.90;;;;;;;14.61;100.00;97488.77;109782;1246;58113;-64
2023/09/04 03:48:12;;;;;;;3.70;3.00;;;;;;;14.61;100.00;97491.98;110104;1243;58029;-65
2023/09/04 03:50:44;;;;;;;5.10;3.30;;;;;;;14.60;100.00;97494.46;110137;1242;69630;-66
2023/09/04 03:53:16;;;;;;;5.30;3.90;;;;;;;14.58;100.00;97497.48;109789;1244;68275;-65
2023/09/04 03:55:48;;;;;;;7.10;4.50;;;;;;;14.58;100.00;97500.98;110013;1241;69461;-65
2023/09/04 03:58:18;;;;;;;5.60;4.40;;;;;;;14.58;100.00;97502.96;110124;1240;58068;-64
2023/09/04 04:00:54;;;;;;;;;;;;;;;14.59;100.00;97502.45;110105;1244;58129;-64
2023/09/04 04:03:25;;;;;;;6.40;3.70;;;;;;;14.62;100.00;97501.20;109812;1242;69504;-64
2023/09/04 04:05:56;;;;;;;5.40;3.50;;;;;;;14.64;100.00;97500.27;110176;1240;69150;-66
2023/09/04 04:08:27;;;;;;;5.10;3.20;;;;;;;14.65;100.00;97498.98;110136;1242;69075;-65
2023/09/04 04:10:58;;;;;;;4.90;3.50;;;;;;;14.67;100.00;97500.71;110108;1243;58929;-64
2023/09/04 04:13:28;;;;;;;4.40;3.20;;;;;;;14.68;100.00;97499.08;110128;1242;58953;-64
2023/09/04 04:16:00;;;;;;;4.50;3.00;;;;;;;14.71;100.00;97496.85;109783;1246;70620;-65
2023/09/04 04:18:31;;;;;;;5.20;2.90;;;;;;;14.75;100.00;97499.48;110143;1240;68578;-65
2023/09/04 04:21:02;;;;;;;7.80;3.10;;;;;;;14.77;100.00;97497.34;110103;1243;69233;-64
2023/09/04 04:23:34;;;;;;;9.90;7.20;;;;;;;14.80;100.00;97503.63;109786;1241;58886;-64
2023/09/04 04:26:04;;;;;;;7.80;5.70;;;;;;;14.82;100.00;97504.02;110119;1240;58888;-64
2023/09/04 04:28:35;;;;;;;5.40;4.10;;;;;;;14.83;100.00;97507.52;109791;1240;70459;-64
2023/09/04 04:31:05;;;;;;;3.40;2.60;;;;;;;14.87;100.00;97510.16;109786;1244;69363;-64
2023/09/04 04:33:36;;;;;;;4.20;3.30;;;;;;;14.94;100.00;97509.23;110128;1242;69092;-64
2023/09/04 04:48:06;;;;;;;3.90;3.00;;;;;;;15.58;100.00;97509.91;107356;1270;609177;-66
2023/09/04 04:50:35;;;;;;;3.60;2.80;;;;;;;15.78;100.00;97510.36;108941;1258;355927;-64
2023/09/04 04:53:05;;;;;;;3.50;2.80;;;;;;;15.83;100.00;97511.71;109121;1255;57923;-64
2023/09/04 04:55:34;;;;;;;3.60;2.80;;;;;;;15.86;100.00;97513.70;109329;1253;69074;-66
2023/09/04 04:58:04;;;;;;;3.70;2.70;;;;;;;15.90;100.00;97514.89;109346;1254;69739;-65
2023/09/04 05:00:34;;;;;;;7.50;3.10;;;;;;;15.91;100.00;97522.36;109689;1248;69873;-64
2023/09/04 05:03:03;;;;;;;4.00;2.70;;;;;;;15.91;100.00;97523.11;109687;1247;58013;-64
2023/09/04 05:05:34;;;;;;;5.30;3.50;;;;;;;15.88;100.00;97528.80;109722;1248;57643;-64
2023/09/04 05:08:03;;;;;;;5.40;3.60;;;;;;;15.87;100.00;97527.46;109776;1248;68796;-64
2023/09/04 05:10:33;;;;;;;3.80;2.90;;;;;;;15.81;100.00;97528.59;109831;1246;69395;-65
2023/09/04 05:13:03;;;;;;;4.10;3.20;;;;;;;15.72;100.00;97521.65;109801;1249;69180;-64
2023/09/04 05:15:32;;;;;;;5.10;3.60;;;;;;;15.73;100.00;97526.83;109806;1245;58180;-64
2023/09/04 05:18:02;;;;;;;5.10;3.20;;;;;;;15.71;100.00;97530.71;109690;1248;58046;-64
2023/09/04 05:20:31;;;;;;;5.20;3.90;;;;;;;15.65;100.00;97531.61;109717;1249;70264;-64
2023/09/04 05:23:01;;;;;;;;;;;;;;;15.60;100.00;97537.88;109741;1248;69872;-66
2023/09/04 05:25:31;;;;;;;5.50;4.20;;;;;;;15.53;100.00;97539.91;109683;1248;69107;-65
2023/09/04 05:28:00;;;;;;;5.30;3.60;;;;;;;15.46;100.00;97542.77;109705;1248;58083;-65
2023/09/04 05:30:33;;;;;;;6.00;4.00;;;;;;;15.38;100.00;97539.48;109680;1247;58106;-64
2023/09/04 05:33:02;;;;;;;6.50;4.70;;;;;;;15.39;100.00;97542.41;109607;1248;70312;-63
2023/09/04 05:35:32;;;;;;;5.50;4.50;;;;;;;15.36;100.00;97548.27;109707;1247;69204;-64
2023/09/04 05:38:01;;;;;;;5.60;3.90;;;;;;;15.36;100.00;97549.40;109837;1249;68703;-65
2023/09/04 05:40:30;;;;;;;4.40;3.50;;;;;;;15.40;100.00;97553.52;109934;1245;58206;-65
2023/09/04 05:42:59;;;;;;;4.10;3.10;;;;;;;15.43;100.00;97556.94;109803;1248;58091;-65
2023/09/04 05:45:29;;;;;;;3.10;2.70;;;;;;;15.51;100.00;97554.85;109773;1249;68997;-65
2023/09/04 05:47:58;;;;;;;3.00;2.10;;;;;;;15.60;100.00;97557.48;109673;1247;69733;-65
2023/09/04 05:50:27;;;;;;;3.80;2.70;;;;;;;15.66;100.00;97557.84;109976;1245;70530;-65
2023/09/04 05:52:57;;;;;;;3.50;2.10;;;;;;;15.76;100.00;97552.39;109984;1247;58118;-66
2023/09/04 05:55:25;;;;;;;4.00;3.60;;;;;;;15.83;100.00;97552.88;109923;1249;58144;-67
2023/09/04 05:57:55;;;;;;;4.10;3.40;;;;;;;15.75;100.00;97557.42;109825;1246;70381;-66
2023/09/04 06:00:24;;;;;;;3.40;2.90;;;;;;;15.86;100.00;97556.41;109796;1247;69221;-66
2023/09/04 06:02:54;;;;;;;2.70;2.20;;;;;;;16.01;100.00;97554.83;109706;1245;69395;-66
2023/09/04 06:05:24;;;;;;;3.10;2.60;;;;;;;16.15;100.00;97560.61;109928;1248;58094;-66
2023/09/04 06:07:53;;;;;;;2.70;2.10;;;;;;;16.22;100.00;97560.61;109965;1247;58046;-65
2023/09/04 06:10:22;;;;;;;2.90;2.00;;;;;;;16.18;100.00;97561.52;109797;1248;69639;-67
2023/09/04 06:12:52;;;;;;;2.70;2.20;;;;;;;16.11;100.00;97558.48;109884;1244;69162;-65
2023/09/04 06:15:21;;;;;;;4.20;2.90;;;;;;;16.23;100.00;97560.52;109778;1244;69425;-66
2023/09/04 06:17:50;;;;;;;3.70;3.30;;;;;;;16.30;100.00;97560.95;109856;1247;58203;-66
2023/09/04 06:20:20;;;;;;;4.30;3.40;;;;;;;16.36;100.00;97560.79;109779;1248;58065;-66
2023/09/04 06:22:49;;;;;;;5.90;3.20;;;;;;;16.44;100.00;97559.04;109902;1248;70690;-66
2023/09/04 06:25:18;;;;;;;3.20;2.60;;;;;;;16.60;100.00;97559.73;109963;1246;69214;-67
2023/09/04 06:27:47;;;;;;;2.90;2.20;;;;;;;16.80;100.00;97562.94;109789;1248;70249;-68
2023/09/04 06:30:16;;;;;;;1.60;1.50;;;;;;;17.03;100.00;97563.64;109874;1255;58153;-66
2023/09/04 06:32:45;;;;;;;2.90;2.50;;;;;;;17.17;100.00;97565.34;109838;1248;58063;-66
2023/09/04 06:35:14;;;;;;;2.90;2.20;;;;;;;17.19;100.00;97567.38;109760;1247;70371;-66
2023/09/04 06:37:44;;;;;;;2.80;2.50;;;;;;;17.20;100.00;97570.13;109794;1245;69203;-68
2023/09/04 06:40:13;;;;;;;3.60;2.20;;;;;;;17.10;100.00;97573.70;109943;1246;69285;-66
2023/09/04 06:42:42;;;;;;;3.00;2.40;;;;;;;17.26;100.00;97578.81;109833;1248;58098;-66
2023/09/04 06:45:11;;;;;;;2.20;1.70;;;;;;;17.61;100.00;97573.84;109777;1248;58061;-66
2023/09/04 06:47:41;;;;;;;3.90;2.10;;;;;;;18.09;100.00;97568.19;109892;1248;69894;-66
2023/09/04 06:50:10;;;;;;;3.00;2.40;;;;;;;18.43;100.00;97572.16;109982;1246;69296;-64
2023/09/04 06:52:39;;;;;;;;;;;;;;;18.61;100.00;97576.85;109974;1248;67819;-63
2023/09/04 06:55:09;;;;;;;2.00;1.60;;;;;;;18.73;100.00;97580.20;109892;1248;58140;-65
2023/09/04 06:57:38;;;;;;;;;;;;;;;18.78;100.00;97584.04;109869;1250;58058;-67
2023/09/04 07:00:11;;;;;;;1.60;1.30;;;;;;;19.19;97.83;97586.91;110019;1248;69851;-65
2023/09/04 07:02:41;;;;;;;2.40;1.60;;;;;;;19.47;94.65;97592.00;109859;1247;69622;-67
2023/09/04 07:05:10;;;;;;;1.40;1.20;;;;;;;19.67;96.14;97596.27;109718;1247;69758;-67
2023/09/04 07:07:39;;;;;;;2.10;1.80;;;;;;;19.85;95.91;97598.25;109856;1248;58098;-66
2023/09/04 07:10:08;;;;;;;2.60;1.50;;;;;;;19.81;92.16;97607.19;109855;1248;58024;-66
2023/09/04 07:12:37;;;;;;;;;;;;;;;19.80;95.76;97613.63;109806;1248;69088;-67
2023/09/04 07:15:07;;;;;;;2.30;1.90;;;;;;;19.58;93.03;97613.52;109835;1245;69287;-66
2023/09/04 07:17:36;;;;;;;1.70;1.40;;;;;;;19.70;94.39;97611.58;109938;1247;68758;-66
2023/09/04 07:20:07;;;;;;;2.70;1.70;;;;;;;19.93;94.24;97617.45;109904;1248;58100;-65
2023/09/04 07:22:35;;;;;;;2.10;1.60;;;;;;;20.07;89.76;97615.20;109770;1244;58147;-66
2023/09/04 07:25:05;;;;;;;2.20;1.70;;;;;;;20.28;90.45;97620.45;109876;1249;69787;-65
2023/09/04 07:27:35;;;;;;;2.00;1.60;;;;;;;20.58;91.46;97620.17;109925;1247;68506;-65
2023/09/04 07:30:04;;;;;;;1.60;1.50;;;;;;;20.83;90.82;97623.60;109857;1246;69833;-65
2023/09/04 07:32:34;;;;;;;2.10;1.30;;;;;;;21.00;88.23;97621.17;109902;1245;58093;-66
2023/09/04 07:35:04;;;;;;;2.10;1.40;;;;;;;21.15;85.37;97621.67;109854;1247;58066;-66
2023/09/04 07:37:33;;;;;;;1.70;1.50;;;;;;;21.39;89.98;97627.10;110192;1245;69923;-67
2023/09/04 07:40:04;;;;;;;3.20;1.90;;;;;;;21.74;85.40;97626.60;110159;1246;68600;-65
2023/09/04 07:42:34;;;;;;;2.40;1.90;;;;;;;22.07;85.35;97620.47;110130;1245;70219;-65
2023/09/04 07:45:04;;;;;;;1.60;1.50;;;;;;;22.47;86.81;97622.21;110156;1246;58140;-66
2023/09/04 07:47:32;;;;;;;2.10;1.60;;;;;;;22.75;80.88;97623.88;110115;1247;58063;-64
2023/09/04 07:50:03;;;;;;;2.00;1.50;;;;;;;22.91;81.88;97625.11;110109;1248;70285;-65
2023/09/04 07:52:32;;;;;;;1.80;1.40;;;;;;;22.97;81.79;97632.06;110094;1242;69219;-64
2023/09/04 07:55:00;;;;;;;1.90;1.40;;;;;;;22.82;79.64;97629.77;110117;1245;69264;-64
2023/09/04 07:57:33;;;;;;;;;;;;;;;22.71;80.43;97624.45;110159;1244;58158;-64
2023/09/04 08:00:02;;;;;;;1.90;1.50;;;;;;;22.58;80.20;97624.75;110130;1246;58065;-64
2023/09/04 08:02:41;;;;;;;;;;;;;;;22.37;77.81;97631.19;110189;1241;70407;-64
2023/09/04 08:05:10;;;;;;;2.10;1.70;;;;;;;22.16;78.62;97632.20;110141;1246;69650;-65
2023/09/04 08:07:39;;;;;;;;;;;;;;;22.08;80.48;97639.53;110129;1246;69862;-65
2023/09/04 08:10:09;;;;;;;2.00;1.50;;;;;;;21.91;79.62;97644.05;110122;1241;58087;-64
2023/09/04 08:12:38;;;;;;;2.10;1.40;;;;;;;21.79;80.11;97646.09;110070;1250;58523;-64
2023/09/04 08:15:08;;;;;;;2.20;1.80;;;;;;;21.75;80.12;97645.48;110136;1244;69075;-65
2023/09/04 08:17:40;;;;;;;2.00;1.30;;;;;;;21.72;80.70;97647.44;110146;1246;69299;-65
2023/09/04 08:20:11;;;;;;;2.00;1.80;;;;;;;21.71;80.49;97648.77;110135;1245;68194;-64
2023/09/04 08:22:40;;;;;;;2.00;1.70;;;;;;;21.69;80.16;97651.87;110132;1244;58186;-66
2023/09/04 08:25:09;;;;;;;1.60;1.40;;;;;;;21.64;79.73;97646.98;110116;1246;58085;-66
2023/09/04 08:27:39;;;;;;;1.70;1.30;;;;;;;21.60;79.35;97645.42;110108;1245;70479;-66
2023/09/04 08:30:09;;;;;;;2.20;1.30;;;;;;;21.69;80.64;97648.14;110074;1252;69319;-65
2023/09/04 08:32:38;;;;;;;2.00;1.60;;;;;;;21.76;79.50;97648.20;110149;1246;68687;-64
2023/09/04 08:35:07;;;;;;;2.10;1.70;;;;;;;21.68;77.50;97651.61;110110;1245;58079;-65
2023/09/04 08:37:36;;;;;;;;;;;;;;;21.63;76.79;97653.45;110170;1245;58154;-66
2023/09/04 08:40:06;;;;;;;1.50;1.40;;;;;;;21.62;77.97;97653.55;110124;1242;69327;-66
2023/09/04 08:42:38;;;;;;;1.50;1.30;;;;;;;21.57;75.59;97649.11;110113;1245;68561;-66
2023/09/04 08:45:09;;;;;;;1.60;1.40;;;;;;;21.59;76.79;97651.63;110098;1244;70155;-66
2023/09/04 08:47:40;;;;;;;1.80;1.40;;;;;;;21.60;76.32;97650.36;110121;1243;58118;-66
2023/09/04 08:50:11;;;;;;;1.20;1.10;;;;;;;21.63;75.26;97651.81;110095;1245;58066;-66
2023/09/04 08:52:41;;;;;;;1.80;1.40;;;;;;;21.73;74.94;97656.84;110145;1246;69843;-66
2023/09/04 08:55:10;;;;;;;2.10;1.50;;;;;;;21.89;75.65;97658.56;110133;1241;69225;-66
2023/09/04 08:57:42;;;;;;;2.20;1.50;;;;;;;22.15;73.33;97658.76;110135;1243;69848;-65
2023/09/04 09:00:12;;;;;;;2.20;1.40;;;;;;;22.49;70.28;97658.66;110164;1243;58932;-66
2023/09/04 09:02:45;;;;;;;1.70;1.50;;;;;;;22.79;66.98;97658.23;110153;1241;58848;-66
2023/09/04 09:05:16;;;;;;;2.00;1.60;;;;;;;23.11;67.49;97665.42;110101;1248;70849;-67
2023/09/04 09:07:46;;;;;;;1.60;1.40;;;;;;;23.45;63.21;97666.97;110077;1252;69238;-65
2023/09/04 09:10:19;;;;;;;1.70;1.50;;;;;;;24.08;65.61;97668.50;110099;1245;69712;-66
2023/09/04 09:12:48;;;;;;;2.60;1.20;;;;;;;24.66;65.20;97665.33;110149;1245;58914;-65
2023/09/04 09:15:18;;;;;;;1.70;1.30;;;;;;;25.08;58.72;97662.69;110131;1246;58944;-66
2023/09/04 09:17:54;;;;;;;1.90;1.30;;;;;;;25.36;57.59;97665.36;110123;1244;71143;-67
2023/09/04 09:20:35;;;;;;;2.20;1.40;;;;;;;25.42;55.00;97666.79;110128;1246;69705;-66
2023/09/04 09:23:06;;;;;;;1.40;1.30;;;;;;;25.08;53.58;97665.48;110147;1243;69489;-65
2023/09/04 09:25:37;;;;;;;1.70;1.40;;;;;;;25.06;54.19;97666.05;110117;1246;59069;-66
2023/09/04 09:28:08;;;;;;;1.90;1.40;;;;;;;24.97;55.87;97667.59;110151;1241;58889;-65
2023/09/04 09:30:40;;;;;;;1.50;1.30;;;;;;;24.72;54.36;97668.63;110150;1241;71167;-66
2023/09/04 09:33:15;;;;;;;2.00;1.20;;;;;;;24.45;54.39;97668.99;110119;1245;69313;-65
2023/09/04 09:35:45;;;;;;;1.20;1.00;;;;;;;24.12;53.66;97676.09;110113;1241;69153;-66
2023/09/04 09:38:15;;;;;;;;;;;;;;;23.72;54.59;97676.70;110134;1243;58995;-65
2023/09/04 09:40:44;;;;;;;;;;;;;;;23.45;56.22;97679.81;110141;1245;58896;-65
2023/09/04 09:43:13;;;;;;;;;;;;;;;23.22;56.88;97675.66;110149;1241;69850;-65
2023/09/04 09:45:42;;;;;;;1.50;1.30;;;;;;;23.03;57.27;97673.61;110120;1245;69858;-65
2023/09/04 09:48:11;;;;;;;1.50;1.40;;;;;;;22.90;58.42;97675.20;110103;1245;69876;-66
2023/09/04 09:50:40;;;;;;;1.60;1.40;;;;;;;22.82;58.20;97674.54;110115;1243;58911;-67
2023/09/04 09:53:09;;;;;;;1.70;1.60;;;;;;;22.83;59.05;97676.33;110170;1245;58841;-65
2023/09/04 09:55:38;;;;;;;;;;;;;;;22.83;58.46;97676.48;110166;1245;70623;-64
2023/09/04 09:58:09;;;;;;;2.00;1.60;;;;;;;22.86;59.40;97676.65;110137;1242;69806;-65
2023/09/04 10:00:39;;;;;;;2.20;1.60;;;;;;;22.93;59.04;97678.66;110142;1245;68135;-65
2023/09/04 10:03:08;;;;;;;1.90;1.60;;;;;;;22.96;59.31;97679.62;110181;1251;58833;-65
2023/09/04 10:05:40;;;;;;;1.80;1.30;;;;;;;23.00;59.02;97677.70;110174;1246;58863;-65
2023/09/04 10:08:11;;;;;;;1.80;1.30;;;;;;;23.05;58.82;97680.70;110173;1241;70528;-65
2023/09/04 10:10:42;;;;;;;1.70;1.50;;;;;;;23.05;58.92;97680.48;110126;1245;69061;-66
2023/09/04 10:13:26;;;;;;;2.10;1.70;;;;;;;23.01;59.39;97678.54;110096;1242;68367;-66
2023/09/04 10:16:01;;;;;;;2.00;1.60;;;;;;;22.97;59.82;97682.25;110141;1243;58912;-65
2023/09/04 10:18:32;;;;;;;2.30;1.70;;;;;;;22.84;59.70;97679.81;110181;1241;59398;-66
2023/09/04 10:21:06;;;;;;;1.90;1.60;;;;;;;22.85;59.93;97675.89;110157;1241;70596;-66
2023/09/04 10:23:44;;;;;;;2.10;1.90;;;;;;;22.92;60.27;97673.74;110180;1241;69811;-65
2023/09/04 10:26:35;;;;;;;2.50;1.70;;;;;;;23.39;59.88;97677.64;110118;1244;69268;-65
2023/09/04 10:29:17;;;;;;;2.10;1.90;;;;;;;23.76;58.39;97678.52;110098;1243;58934;-65
2023/09/04 10:31:48;;;;;;;1.80;1.60;;;;;;;23.86;57.60;97674.60;110139;1245;58877;-65
2023/09/04 10:34:19;;;;;;;2.10;1.80;;;;;;;23.93;56.48;97672.17;110129;1246;70637;-65
2023/09/04 10:36:49;;;;;;;2.50;1.90;;;;;;;23.98;56.52;97674.86;110123;1246;69370;-66
2023/09/04 10:39:19;;;;;;;2.30;1.90;;;;;;;23.97;56.34;97676.32;110149;1244;68523;-66
2023/09/04 10:41:48;;;;;;;2.20;1.80;;;;;;;23.83;56.19;97677.79;110157;1244;59244;-66
2023/09/04 10:44:51;;;;;;;2.30;1.80;;;;;;;23.75;55.57;97675.96;110188;1245;58842;-65
2023/09/04 10:47:21;;;;;;;3.30;2.60;;;;;;;23.66;56.83;97674.70;110174;1244;69715;-65
2023/09/04 10:49:51;;;;;;;2.70;2.10;;;;;;;23.60;56.59;97674.17;110159;1241;68312;-65
2023/09/04 10:52:21;;;;;;;2.50;2.10;;;;;;;23.65;56.87;97677.04;110134;1245;69769;-65
2023/09/04 10:55:11;;;;;;;2.90;1.80;;;;;;;23.69;56.82;97674.67;110169;1246;59011;-65
2023/09/04 10:57:57;;;;;;;2.20;1.80;;;;;;;23.87;55.98;97669.84;110161;1241;58982;-66
2023/09/04 11:00:37;;;;;;;3.30;2.30;;;;;;;24.26;54.81;97663.05;110150;1243;70605;-65
2023/09/04 11:03:20;;;;;;;3.10;2.40;;;;;;;24.53;54.56;97659.88;110153;1243;69799;-65
2023/09/04 11:06:07;;;;;;;2.50;1.90;;;;;;;24.56;54.24;97660.86;110075;1243;69278;-65
2023/09/04 11:08:40;;;;;;;2.30;1.80;;;;;;;24.68;52.24;97669.98;110156;1241;58938;-66
2023/09/04 11:11:09;;;;;;;3.30;2.00;;;;;;;24.88;51.91;97669.35;110130;1245;58905;-66
2023/09/04 11:13:44;;;;;;;2.40;2.20;;;;;;;25.20;51.68;97669.84;110203;1245;71168;-66
2023/09/04 11:16:15;;;;;;;2.50;2.00;;;;;;;25.84;49.04;97672.42;110111;1244;69250;-66
2023/09/04 11:18:43;;;;;;;2.20;1.80;;;;;;;26.93;48.73;97665.23;110150;1245;70039;-67
2023/09/04 11:21:14;;;;;;;2.50;1.90;;;;;;;27.82;48.84;97668.34;110183;1241;58998;-66
2023/09/04 11:23:43;;;;;;;2.70;2.50;;;;;;;28.12;45.62;97670.95;110162;1245;58825;-66
2023/09/04 11:26:12;;;;;;;2.30;2.10;;;;;;;27.92;43.41;97672.50;110145;1241;71121;-65
2023/09/04 11:28:41;;;;;;;;;;;;;;;27.59;43.12;97669.65;110208;1242;69084;-65
2023/09/04 11:31:11;;;;;;;2.90;2.50;;;;;;;27.06;43.63;97666.24;110115;1241;69852;-65
2023/09/04 11:33:40;;;;;;;3.30;2.60;;;;;;;26.71;45.45;97663.80;110179;1245;58928;-66
2023/09/04 11:36:10;;;;;;;2.60;2.10;;;;;;;26.75;45.04;97663.99;110151;1244;58911;-65
2023/09/04 11:38:40;;;;;;;2.40;2.10;;;;;;;27.38;44.93;97666.59;110142;1244;70525;-65
2023/09/04 11:41:17;;;;;;;2.50;2.20;;;;;;;27.54;44.06;97666.16;110153;1245;69494;-66
2023/09/04 11:43:46;;;;;;;2.40;2.10;;;;;;;27.53;42.99;97664.85;110150;1243;69266;-66
2023/09/04 11:46:16;;;;;;;2.80;2.50;;;;;;;27.24;43.32;97657.27;110158;1246;58897;-65
2023/09/04 11:48:45;;;;;;;2.10;1.90;;;;;;;27.15;42.75;97653.41;110153;1245;58892;-66
2023/09/04 11:51:14;;;;;;;1.80;1.50;;;;;;;26.95;43.69;97654.93;110131;1244;69866;-66
2023/09/04 11:53:45;;;;;;;1.80;1.60;;;;;;;27.10;43.59;97652.05;110161;1243;68246;-66
2023/09/04 11:56:15;;;;;;;1.90;1.70;;;;;;;27.19;42.89;97652.33;110099;1242;68405;-66